createdAt,value
2018-12-04T00:00:08.950Z,0.00
2018-12-04T00:10:50.524Z,0.00
2018-12-04T00:11:51.027Z,0.00
2018-12-04T00:12:51.619Z,0.00
2018-12-04T00:13:52.127Z,0.00
2018-12-04T00:14:52.679Z,0.00
2018-12-04T00:15:53.159Z,0.00
2018-12-04T00:16:53.698Z,0.00
2018-12-04T00:17:54.228Z,0.00
2018-12-04T00:18:54.989Z,0.00
2018-12-04T00:19:55.497Z,0.00
2018-12-04T00:20:56.092Z,0.00
2018-12-04T00:21:56.582Z,0.00
2018-12-04T00:22:57.089Z,0.00
2018-12-04T00:23:57.601Z,0.00
2018-12-04T00:53:52.095Z,0.00
2018-12-04T00:54:52.597Z,0.00
2018-12-04T00:55:55.017Z,0.00
2018-12-04T00:56:57.013Z,0.00
2018-12-04T00:57:58.512Z,0.00
2018-12-04T00:58:59.012Z,0.00
2018-12-04T00:59:59.520Z,0.00
2018-12-04T01:01:00.030Z,0.00
2018-12-04T01:02:00.532Z,0.00
2018-12-04T01:03:01.037Z,0.00
2018-12-04T01:04:01.547Z,0.00
2018-12-04T01:05:02.043Z,0.00
2018-12-04T01:10:55.216Z,0.00
2018-12-04T01:11:55.718Z,0.00
2018-12-04T01:14:49.814Z,0.00
2018-12-04T01:27:40.606Z,0.00
2018-12-04T01:28:41.105Z,0.00
2018-12-04T01:29:41.682Z,0.00
2018-12-04T01:30:42.165Z,0.00
2018-12-04T01:31:42.724Z,0.00
2018-12-04T01:32:43.231Z,0.00
2018-12-04T01:33:43.755Z,0.00
2018-12-04T01:34:44.685Z,0.00
2018-12-04T01:35:45.216Z,0.00
2018-12-04T01:36:45.727Z,0.00
2018-12-04T01:37:47.259Z,0.00
2018-12-04T01:38:47.790Z,0.00
2018-12-04T01:39:48.297Z,0.00
2018-12-04T01:40:48.797Z,0.00
2018-12-04T01:41:49.429Z,0.00
2018-12-04T01:42:50.073Z,0.00
2018-12-04T01:43:52.175Z,0.00
2018-12-04T01:44:52.763Z,0.00
2018-12-04T01:45:53.877Z,0.00
2018-12-04T01:46:54.447Z,0.00
2018-12-04T01:47:55.044Z,0.00
2018-12-04T01:48:55.617Z,0.00
2018-12-04T01:49:56.567Z,0.00
2018-12-04T01:50:57.072Z,0.00
2018-12-04T01:51:57.805Z,0.00
2018-12-04T01:52:58.713Z,0.00
2018-12-04T01:53:59.662Z,0.00
2018-12-04T01:55:00.953Z,0.00
2018-12-04T01:56:01.562Z,0.00
2018-12-04T01:57:02.343Z,0.00
2018-12-04T01:58:03.310Z,0.00
2018-12-04T01:59:04.188Z,0.00
2018-12-04T02:00:04.731Z,0.00
2018-12-04T02:01:05.634Z,0.00
2018-12-04T02:02:06.146Z,0.00
2018-12-04T02:03:07.612Z,0.00
2018-12-04T02:04:08.194Z,0.00
2018-12-04T02:05:08.848Z,0.00
2018-12-04T02:06:09.949Z,0.00
2018-12-04T02:07:11.240Z,0.00
2018-12-04T02:08:12.351Z,0.00
2018-12-04T02:09:13.525Z,0.00
2018-12-04T02:19:17.156Z,0.00
2018-12-04T02:20:18.087Z,0.00
2018-12-04T02:21:19.183Z,0.00
2018-12-04T02:22:20.042Z,0.00
2018-12-04T02:23:20.775Z,0.00
2018-12-04T02:24:21.813Z,0.00
2018-12-04T02:25:22.786Z,0.00
2018-12-04T02:26:23.623Z,0.00
2018-12-04T02:27:24.339Z,0.00
2018-12-04T02:28:24.961Z,0.00
2018-12-04T02:29:27.837Z,0.00
2018-12-04T02:30:29.225Z,0.00
2018-12-04T02:31:30.117Z,0.00
2018-12-04T02:32:31.183Z,0.00
2018-12-04T02:33:39.731Z,0.00
2018-12-04T02:34:40.722Z,0.00
2018-12-04T02:35:41.904Z,0.00
2018-12-04T02:36:43.080Z,0.00
2018-12-04T02:37:44.067Z,0.00
2018-12-04T02:38:44.841Z,0.00
2018-12-04T02:39:52.702Z,0.00
2018-12-04T02:40:54.035Z,0.00
2018-12-04T02:41:55.047Z,0.00
2018-12-04T02:42:55.948Z,0.00
2018-12-04T02:43:56.911Z,0.00
2018-12-04T02:44:57.989Z,0.00
2018-12-04T02:45:59.096Z,0.00
2018-12-04T02:50:28.102Z,0.00
2018-12-04T02:51:28.693Z,0.00
2018-12-04T03:12:36.953Z,0.00
2018-12-04T03:13:37.746Z,0.00
2018-12-04T03:16:32.355Z,0.00
2018-12-04T03:17:33.066Z,0.00
2018-12-04T03:18:33.878Z,0.00
2018-12-04T03:19:34.504Z,0.00
2018-12-04T03:20:35.608Z,0.00
2018-12-04T03:21:37.413Z,0.00
2018-12-04T03:22:38.299Z,0.00
2018-12-04T03:23:39.459Z,0.00
2018-12-04T03:24:40.080Z,0.00
2018-12-04T03:25:40.659Z,0.00
2018-12-04T03:26:41.518Z,0.00
2018-12-04T03:27:42.669Z,0.00
2018-12-04T03:28:43.883Z,0.00
2018-12-04T03:29:44.633Z,0.00
2018-12-04T03:30:45.739Z,0.00
2018-12-04T03:31:46.286Z,0.00
2018-12-04T03:32:47.094Z,0.00
2018-12-04T03:33:50.952Z,0.00
2018-12-04T03:34:53.463Z,0.00
2018-12-04T03:35:54.081Z,0.00
2018-12-04T03:36:54.622Z,0.00
2018-12-04T03:37:55.276Z,0.00
2018-12-04T03:38:57.377Z,0.00
2018-12-04T03:39:58.186Z,0.00
2018-12-04T03:41:07.020Z,0.00
2018-12-04T03:42:08.142Z,0.00
2018-12-04T03:43:09.148Z,0.00
2018-12-04T04:03:09.951Z,0.00
2018-12-04T04:04:46.479Z,0.00
2018-12-04T04:05:47.143Z,0.00
2018-12-04T04:39:20.464Z,0.00
2018-12-04T04:40:23.566Z,0.00
2018-12-04T04:43:18.387Z,0.00
2018-12-04T04:44:19.036Z,0.00
2018-12-04T04:45:21.756Z,0.00
2018-12-04T04:46:22.455Z,0.00
2018-12-04T04:47:24.609Z,0.00
2018-12-04T04:48:25.413Z,0.00
2018-12-04T04:49:26.078Z,0.00
2018-12-04T04:50:26.985Z,0.00
2018-12-04T04:51:27.650Z,0.00
2018-12-04T04:52:28.413Z,0.00
2018-12-04T04:53:29.021Z,0.00
2018-12-04T04:54:31.053Z,0.00
2018-12-04T04:55:31.854Z,0.00
2018-12-04T04:56:32.773Z,0.00
2018-12-04T04:57:33.669Z,0.00
2018-12-04T04:58:41.210Z,0.00
2018-12-04T04:59:42.110Z,0.00
2018-12-04T05:00:43.225Z,0.00
2018-12-04T05:01:44.292Z,0.00
2018-12-04T05:02:45.000Z,0.00
2018-12-04T05:03:45.963Z,0.00
2018-12-04T05:04:46.673Z,0.00
2018-12-04T05:05:47.614Z,0.00
2018-12-04T05:06:48.253Z,0.00
2018-12-04T05:07:49.266Z,0.00
2018-12-04T05:08:49.969Z,0.00
2018-12-04T05:09:50.696Z,0.00
2018-12-04T05:10:52.840Z,0.00
2018-12-04T05:11:53.832Z,0.00
2018-12-04T05:13:01.205Z,0.00
2018-12-04T05:14:01.846Z,0.00
2018-12-04T05:16:42.881Z,0.00
2018-12-04T05:17:52.179Z,0.00
2018-12-04T05:18:52.839Z,0.00
2018-12-04T05:19:55.577Z,0.00
2018-12-04T05:20:56.249Z,0.00
2018-12-04T05:22:04.694Z,0.00
2018-12-04T05:23:05.402Z,0.00
2018-12-04T05:24:08.092Z,0.00
2018-12-04T05:25:08.772Z,0.00
2018-12-04T05:26:09.439Z,0.00
2018-12-04T05:27:10.156Z,0.00
2018-12-04T05:28:10.864Z,0.00
2018-12-04T05:29:11.663Z,0.00
2018-12-04T05:30:12.288Z,0.00
2018-12-04T05:31:12.979Z,0.00
2018-12-04T05:32:13.738Z,0.00
2018-12-04T05:33:14.461Z,0.00
2018-12-04T05:34:15.137Z,0.00
2018-12-04T05:35:15.962Z,0.00
2018-12-04T05:36:17.100Z,0.00
2018-12-04T05:37:17.894Z,0.00
2018-12-04T05:38:18.638Z,0.00
2018-12-04T05:39:19.326Z,0.00
2018-12-04T05:40:21.113Z,0.00
2018-12-04T05:41:21.822Z,0.00
2018-12-04T05:42:30.280Z,0.00
2018-12-04T05:43:30.902Z,0.00
2018-12-04T05:44:52.611Z,0.00
2018-12-04T05:45:53.270Z,0.00
2018-12-04T05:46:54.001Z,0.00
2018-12-04T05:47:54.660Z,0.00
2018-12-04T05:48:55.327Z,0.00
2018-12-04T05:50:16.958Z,0.00
2018-12-04T05:51:17.556Z,0.00
2018-12-04T05:52:26.174Z,0.00
2018-12-04T05:53:26.812Z,0.00
2018-12-04T05:54:48.511Z,0.00
2018-12-04T05:55:49.131Z,0.00
2018-12-04T05:56:49.803Z,0.00
2018-12-04T05:57:50.368Z,0.00
2018-12-04T05:58:51.022Z,0.00
2018-12-04T05:59:52.771Z,0.00
2018-12-04T06:00:53.366Z,0.00
2018-12-04T06:01:56.156Z,0.00
2018-12-04T06:02:58.618Z,0.00
2018-12-04T06:04:01.113Z,0.00
2018-12-04T06:05:01.795Z,0.00
2018-12-04T06:06:02.477Z,0.00
2018-12-04T06:07:03.222Z,0.00
2018-12-04T06:08:04.007Z,0.00
2018-12-04T06:09:04.648Z,0.00
2018-12-04T06:10:31.205Z,0.00
2018-12-04T06:11:31.830Z,0.00
2018-12-04T06:12:33.268Z,0.00
2018-12-04T06:13:37.342Z,0.00
2018-12-04T06:14:37.758Z,0.00
2018-12-04T06:15:38.382Z,0.00
2018-12-04T06:16:39.000Z,0.00
2018-12-04T06:17:39.612Z,0.00
2018-12-04T06:18:42.112Z,0.00
2018-12-04T06:19:44.616Z,0.00
2018-12-04T06:20:45.227Z,0.00
2018-12-04T06:22:00.624Z,0.00
2018-12-04T06:23:01.230Z,0.00
2018-12-04T06:24:03.629Z,0.00
2018-12-04T06:25:04.263Z,0.00
2018-12-04T06:26:04.881Z,0.00
2018-12-04T06:27:05.498Z,0.00
2018-12-04T06:28:07.621Z,0.00
2018-12-04T06:29:08.237Z,0.00
2018-12-04T06:30:08.917Z,0.00
2018-12-04T06:31:09.530Z,0.00
2018-12-04T06:32:10.265Z,0.00
2018-12-04T06:33:11.121Z,0.00
2018-12-04T06:34:11.800Z,0.00
2018-12-04T06:35:12.434Z,0.00
2018-12-04T06:36:15.083Z,0.00
2018-12-04T06:37:15.706Z,0.00
2018-12-04T06:38:16.496Z,0.00
2018-12-04T06:39:17.076Z,0.00
2018-12-04T06:40:17.798Z,0.00
2018-12-04T06:41:18.416Z,0.00
2018-12-04T06:42:36.227Z,0.00
2018-12-04T06:43:37.034Z,0.00
2018-12-04T06:44:52.728Z,0.00
2018-12-04T06:45:53.355Z,0.00
2018-12-04T06:47:01.648Z,0.00
2018-12-04T06:48:02.258Z,0.00
2018-12-04T06:49:19.693Z,0.00
2018-12-04T06:50:20.317Z,0.00
2018-12-04T06:51:42.236Z,0.00
2018-12-04T06:52:42.902Z,0.00
2018-12-04T06:53:43.585Z,4.00
2018-12-04T06:54:44.185Z,4.00
2018-12-04T06:57:04.492Z,0.00
2018-12-04T06:58:20.154Z,4.00
2018-12-04T06:59:20.912Z,4.00
2018-12-04T07:00:23.665Z,4.00
2018-12-04T07:01:24.279Z,4.00
2018-12-04T07:02:46.988Z,8.00
2018-12-04T07:03:47.622Z,4.00
2018-12-04T07:04:49.284Z,4.00
2018-12-04T07:05:49.939Z,8.00
2018-12-04T07:06:50.629Z,8.00
2018-12-04T07:07:51.236Z,8.00
2018-12-04T07:09:19.719Z,8.00
2018-12-04T07:10:20.341Z,12.00
2018-12-04T07:11:28.779Z,16.00
2018-12-04T07:12:29.356Z,16.00
2018-12-04T07:13:37.661Z,16.00
2018-12-04T07:14:38.291Z,20.00
2018-12-04T07:15:46.692Z,20.00
2018-12-04T07:16:47.312Z,20.00
2018-12-04T07:17:48.074Z,24.00
2018-12-04T07:18:48.923Z,28.00
2018-12-04T07:19:49.996Z,28.00
2018-12-04T07:20:50.612Z,32.00
2018-12-04T07:21:51.340Z,32.00
2018-12-04T07:22:52.312Z,36.00
2018-12-04T07:23:53.075Z,36.00
2018-12-04T07:24:54.169Z,40.00
2018-12-04T07:25:54.845Z,44.00
2018-12-04T07:26:55.280Z,44.00
2018-12-04T07:27:56.482Z,48.00
2018-12-04T07:28:57.316Z,52.00
2018-12-04T07:30:07.150Z,56.00
2018-12-04T07:31:08.063Z,60.00
2018-12-04T07:32:09.949Z,68.00
2018-12-04T07:33:10.573Z,72.00
2018-12-04T07:34:36.143Z,72.00
2018-12-04T07:35:36.698Z,84.00
2018-12-04T07:36:53.160Z,88.00
2018-12-04T07:37:54.112Z,92.00
2018-12-04T07:38:56.953Z,92.00
2018-12-04T07:39:57.503Z,96.00
2018-12-04T07:41:36.191Z,92.00
2018-12-04T07:42:36.836Z,96.00
2018-12-04T07:55:40.494Z,284.00
2018-12-04T07:56:41.317Z,292.00
2018-12-04T07:57:42.239Z,308.00
2018-12-04T07:58:43.450Z,316.00
2018-12-04T07:59:44.116Z,328.00
2018-12-04T08:00:44.773Z,344.00
2018-12-04T08:01:47.513Z,352.00
2018-12-04T08:02:48.213Z,332.00
2018-12-04T08:03:48.848Z,224.00
2018-12-04T08:04:49.517Z,180.00
2018-12-04T08:05:59.097Z,184.00
2018-12-04T08:06:59.765Z,196.00
2018-12-04T08:08:00.484Z,228.00
2018-12-04T08:09:01.266Z,364.00
2018-12-04T08:10:01.941Z,448.00
2018-12-04T08:11:02.608Z,460.00
2018-12-04T08:12:03.356Z,472.00
2018-12-04T08:13:04.354Z,480.00
2018-12-04T08:14:05.046Z,484.00
2018-12-04T08:15:05.708Z,496.00
2018-12-04T08:16:06.442Z,508.00
2018-12-04T08:17:07.113Z,512.00
2018-12-04T08:18:07.880Z,508.00
2018-12-04T08:19:08.558Z,516.00
2018-12-04T08:20:09.219Z,536.00
2018-12-04T08:21:09.884Z,544.00
2018-12-04T08:22:10.564Z,544.00
2018-12-04T08:23:11.232Z,540.00
2018-12-04T08:24:12.015Z,532.00
2018-12-04T08:25:12.681Z,524.00
2018-12-04T08:26:13.353Z,520.00
2018-12-04T08:27:14.086Z,520.00
2018-12-04T08:28:14.776Z,524.00
2018-12-04T08:29:15.528Z,340.00
2018-12-04T08:30:16.195Z,336.00
2018-12-04T08:31:16.882Z,312.00
2018-12-04T08:32:17.545Z,468.00
2018-12-04T08:33:18.210Z,556.00
2018-12-04T08:34:18.913Z,592.00
2018-12-04T08:35:19.617Z,632.00
2018-12-04T08:36:20.301Z,648.00
2018-12-04T08:37:20.973Z,660.00
2018-12-04T08:38:21.779Z,664.00
2018-12-04T08:39:22.801Z,664.00
2018-12-04T08:40:23.482Z,672.00
2018-12-04T08:41:24.156Z,668.00
2018-12-04T08:42:24.873Z,584.00
2018-12-04T08:43:25.532Z,680.00
2018-12-04T08:44:26.200Z,680.00
2018-12-04T08:45:26.845Z,680.00
2018-12-04T08:46:27.517Z,680.00
2018-12-04T08:47:28.224Z,680.00
2018-12-04T08:48:28.866Z,676.00
2018-12-04T08:49:29.535Z,676.00
2018-12-04T08:50:30.208Z,680.00
2018-12-04T08:51:30.937Z,676.00
2018-12-04T08:52:31.610Z,668.00
2018-12-04T08:53:32.277Z,664.00
2018-12-04T08:54:32.962Z,544.00
2018-12-04T08:55:33.636Z,588.00
2018-12-04T08:56:34.308Z,608.00
2018-12-04T08:57:35.029Z,588.00
2018-12-04T08:58:35.709Z,644.00
2018-12-04T08:59:36.389Z,668.00
2018-12-04T09:00:37.070Z,676.00
2018-12-04T09:01:37.754Z,680.00
2018-12-04T09:02:38.491Z,684.00
2018-12-04T09:03:39.152Z,692.00
2018-12-04T09:04:40.977Z,700.00
2018-12-04T09:05:41.697Z,716.00
2018-12-04T09:06:42.433Z,732.00
2018-12-04T09:07:43.056Z,644.00
2018-12-04T09:08:43.781Z,640.00
2018-12-04T09:09:44.367Z,784.00
2018-12-04T09:10:47.053Z,772.00
2018-12-04T09:11:47.672Z,764.00
2018-12-04T09:12:50.446Z,768.00
2018-12-04T09:13:51.056Z,760.00
2018-12-04T09:14:53.015Z,752.00
2018-12-04T09:15:53.620Z,756.00
2018-12-04T09:16:55.380Z,748.00
2018-12-04T09:17:56.023Z,604.00
2018-12-04T09:18:57.782Z,740.00
2018-12-04T09:19:58.385Z,884.00
2018-12-04T09:20:59.113Z,900.00
2018-12-04T09:21:59.727Z,908.00
2018-12-04T09:23:00.467Z,924.00
2018-12-04T09:24:01.076Z,940.00
2018-12-04T09:25:01.831Z,956.00
2018-12-04T09:26:02.443Z,968.00
2018-12-04T09:27:12.270Z,988.00
2018-12-04T09:28:12.882Z,1004.00
2018-12-04T09:29:43.172Z,1016.00
2018-12-04T09:30:46.483Z,1044.00
2018-12-04T09:31:48.991Z,1060.00
2018-12-04T09:32:49.611Z,1072.00
2018-12-04T09:33:50.257Z,1084.00
2018-12-04T09:34:50.865Z,1096.00
2018-12-04T09:35:51.481Z,1104.00
2018-12-04T09:36:52.116Z,1124.00
2018-12-04T09:37:54.505Z,1140.00
2018-12-04T09:38:55.142Z,1148.00
2018-12-04T09:39:55.745Z,1156.00
2018-12-04T09:41:13.126Z,1176.00
2018-12-04T09:42:13.733Z,1196.00
2018-12-04T09:43:15.379Z,1212.00
2018-12-04T09:44:16.029Z,1244.00
2018-12-04T09:45:16.716Z,1268.00
2018-12-04T09:46:17.344Z,1288.00
2018-12-04T10:08:17.088Z,28.00
2018-12-04T10:09:17.737Z,40.00
2018-12-04T10:10:18.636Z,36.00
2018-12-04T10:11:19.254Z,36.00
2018-12-04T10:12:21.068Z,36.00
2018-12-04T10:13:21.736Z,36.00
2018-12-04T10:14:22.520Z,36.00
2018-12-04T10:15:23.184Z,36.00
2018-12-04T10:16:23.877Z,36.00
2018-12-04T10:17:24.560Z,36.00
2018-12-04T10:18:25.296Z,36.00
2018-12-04T10:19:25.931Z,36.00
2018-12-04T10:20:26.612Z,36.00
2018-12-04T10:21:27.372Z,36.00
2018-12-04T10:22:28.036Z,36.00
2018-12-04T10:23:28.797Z,40.00
2018-12-04T10:24:29.447Z,36.00
2018-12-04T10:25:30.260Z,36.00
2018-12-04T10:26:31.180Z,36.00
2018-12-04T10:27:39.058Z,16.00
2018-12-04T10:28:40.170Z,20.00
2018-12-04T10:29:41.257Z,20.00
2018-12-04T10:30:41.715Z,208.00
2018-12-04T10:35:16.814Z,5252.00
2018-12-04T10:36:17.463Z,5268.00
2018-12-04T10:37:18.155Z,5296.00
2018-12-04T10:38:20.425Z,5328.00
2018-12-04T10:39:23.184Z,5368.00
2018-12-04T10:40:23.808Z,5404.00
2018-12-04T10:41:41.650Z,5444.00
2018-12-04T10:42:42.358Z,5520.00
2018-12-04T11:06:37.012Z,26432.00
2018-12-04T11:07:37.663Z,14912.00
2018-12-04T11:08:38.501Z,31488.00
2018-12-04T11:09:39.174Z,67392.00
2018-12-04T11:10:39.976Z,66016.00
2018-12-04T11:11:40.659Z,36800.00
2018-12-04T11:12:49.141Z,50656.00
2018-12-04T11:13:49.955Z,82208.00
2018-12-04T11:14:50.707Z,58080.00
2018-12-04T11:15:51.365Z,56096.00
2018-12-04T11:17:01.105Z,85088.00
2018-12-04T11:18:01.812Z,65984.00
2018-12-04T11:19:09.046Z,32832.00
2018-12-04T11:20:09.744Z,56768.00
2018-12-04T11:21:12.462Z,62592.00
2018-12-04T11:22:13.147Z,35552.00
2018-12-04T11:23:21.570Z,27872.00
2018-12-04T11:24:22.281Z,38080.00
2018-12-04T11:25:24.062Z,25056.00
2018-12-04T11:26:24.743Z,29536.00
2018-12-04T11:27:32.040Z,51872.00
2018-12-04T11:28:32.718Z,45088.00
2018-12-04T11:29:40.041Z,32224.00
2018-12-04T11:30:40.707Z,39040.00
2018-12-04T11:31:48.044Z,30528.00
2018-12-04T11:32:48.732Z,18880.00
2018-12-04T11:33:50.532Z,29184.00
2018-12-04T11:34:51.274Z,50336.00
2018-12-04T11:35:52.034Z,41888.00
2018-12-04T11:36:52.724Z,45920.00
2018-12-04T11:37:55.483Z,89024.00
2018-12-04T11:38:56.178Z,88992.00
2018-12-04T11:39:56.883Z,48288.00
2018-12-04T11:40:58.720Z,46624.00
2018-12-04T11:41:59.348Z,53600.00
2018-12-04T11:43:15.091Z,36736.00
2018-12-04T11:44:15.759Z,42816.00
2018-12-04T11:45:16.499Z,66880.00
2018-12-04T11:46:17.198Z,49664.00
2018-12-04T11:47:18.006Z,40480.00
2018-12-04T11:48:18.672Z,67136.00
2018-12-04T11:49:19.866Z,59360.00
2018-12-04T11:50:20.805Z,34368.00
2018-12-04T11:51:22.800Z,63200.00
2018-12-04T11:52:23.933Z,87520.00
2018-12-04T11:53:24.690Z,55552.00
2018-12-04T11:54:26.387Z,52608.00
2018-12-04T11:55:27.105Z,66304.00
2018-12-04T11:56:27.859Z,39040.00
2018-12-04T11:57:28.535Z,23008.00
2018-12-04T11:58:29.294Z,36576.00
2018-12-04T11:59:29.969Z,43872.00
2018-12-04T12:00:32.803Z,31040.00
2018-12-04T12:01:33.458Z,68608.00
2018-12-04T12:02:34.168Z,60800.00
2018-12-04T12:03:35.998Z,43200.00
2018-12-04T12:04:36.672Z,53536.00
2018-12-04T12:05:37.460Z,62144.00
2018-12-04T12:06:38.156Z,63968.00
2018-12-04T12:07:40.932Z,66240.00
2018-12-04T12:08:41.671Z,51488.00
2018-12-04T12:09:42.368Z,28864.00
2018-12-04T12:10:43.073Z,27712.00
2018-12-04T12:11:43.824Z,18848.00
2018-12-04T12:13:20.122Z,19424.00
2018-12-04T12:14:20.796Z,12700.00
2018-12-04T12:15:28.100Z,7540.00
2018-12-04T12:16:28.823Z,6920.00
2018-12-04T12:17:37.094Z,6504.00
2018-12-04T12:18:37.786Z,9604.00
2018-12-04T12:19:59.506Z,9860.00
2018-12-04T12:21:00.266Z,6496.00
2018-12-04T13:11:06.653Z,4004.00
2018-12-04T13:19:21.342Z,3908.00
2018-12-04T13:20:24.341Z,3880.00
2018-12-04T13:21:25.167Z,3860.00
2018-12-04T13:22:33.813Z,3856.00
2018-12-04T13:23:34.531Z,3832.00
2018-12-04T13:24:37.306Z,3812.00
2018-12-04T13:25:38.057Z,3812.00
2018-12-04T13:26:39.991Z,3804.00
2018-12-04T13:27:40.445Z,3768.00
2018-12-04T13:28:41.236Z,3740.00
2018-12-04T13:29:41.935Z,3704.00
2018-12-04T13:30:51.388Z,3664.00
2018-12-04T13:31:52.089Z,3612.00
2018-12-04T13:32:52.846Z,3564.00
2018-12-04T13:33:53.546Z,3536.00
2018-12-04T13:34:54.295Z,3508.00
2018-12-04T13:35:54.995Z,3492.00
2018-12-04T13:36:56.780Z,3472.00
2018-12-04T13:37:57.451Z,3600.00
2018-12-04T13:39:00.281Z,3760.00
2018-12-04T13:40:00.927Z,4092.00
2018-12-04T13:41:02.740Z,3544.00
2018-12-04T13:42:03.396Z,4112.00
2018-12-04T13:43:04.085Z,4360.00
2018-12-04T13:44:06.852Z,12184.00
2018-12-04T13:45:07.564Z,26880.00
2018-12-04T13:46:08.298Z,34784.00
2018-12-04T13:47:08.999Z,28768.00
2018-12-04T13:48:10.820Z,35104.00
2018-12-04T13:49:11.783Z,34368.00
2018-12-04T13:50:14.640Z,34688.00
2018-12-04T13:51:15.296Z,35232.00
2018-12-04T13:52:17.107Z,35328.00
2018-12-04T13:53:17.938Z,35136.00
2018-12-04T13:54:19.764Z,37504.00
2018-12-04T13:55:20.472Z,36256.00
2018-12-04T13:56:23.329Z,36256.00
2018-12-04T13:57:23.952Z,32064.00
2018-12-04T13:58:25.827Z,23328.00
2018-12-04T13:59:26.535Z,10596.00
2018-12-04T14:00:27.374Z,5356.00
2018-12-04T14:01:28.065Z,3808.00
2018-12-04T14:02:28.928Z,3528.00
2018-12-04T14:03:29.643Z,3392.00
2018-12-04T14:04:32.575Z,3364.00
2018-12-04T14:05:33.242Z,3328.00
2018-12-04T14:06:35.147Z,3332.00
2018-12-04T14:07:35.845Z,3324.00
2018-12-04T14:08:44.445Z,3456.00
2018-12-04T14:09:45.137Z,3784.00
2018-12-04T14:10:54.005Z,4344.00
2018-12-04T14:11:54.683Z,5916.00
2018-12-04T14:12:55.510Z,7308.00
2018-12-04T14:13:56.223Z,7220.00
2018-12-04T14:15:12.978Z,5744.00
2018-12-04T14:16:13.697Z,3928.00
2018-12-04T14:17:15.560Z,3624.00
2018-12-04T14:18:16.237Z,2932.00
2018-12-04T14:19:24.974Z,2544.00
2018-12-04T14:20:25.662Z,2372.00
2018-12-04T14:21:27.438Z,2312.00
2018-12-04T14:22:28.101Z,2244.00
2018-12-04T14:23:29.053Z,2172.00
2018-12-04T14:24:29.741Z,2132.00
2018-12-04T14:25:32.842Z,2136.00
2018-12-04T14:26:33.555Z,2148.00
2018-12-04T14:27:36.628Z,2196.00
2018-12-04T14:28:37.318Z,2168.00
2018-12-04T14:29:38.128Z,2024.00
2018-12-04T14:30:38.821Z,1892.00
2018-12-04T14:31:39.688Z,1820.00
2018-12-04T14:32:40.402Z,1820.00
2018-12-04T14:33:49.105Z,1772.00
2018-12-04T14:34:49.725Z,1672.00
2018-12-04T14:35:50.560Z,1612.00
2018-12-04T14:36:51.217Z,1548.00
2018-12-04T14:37:52.139Z,1572.00
2018-12-04T14:38:52.834Z,1576.00
2018-12-04T14:39:53.479Z,1508.00
2018-12-04T14:40:55.288Z,1368.00
2018-12-04T14:41:55.992Z,1252.00
2018-12-04T14:43:11.495Z,1208.00
2018-12-04T14:44:12.200Z,1156.00
2018-12-04T14:45:15.150Z,1112.00
2018-12-04T14:46:15.833Z,1036.00
2018-12-04T14:47:16.641Z,932.00
2018-12-04T14:48:17.326Z,860.00
2018-12-04T14:49:19.212Z,776.00
2018-12-04T14:50:19.878Z,736.00
2018-12-04T14:51:21.665Z,736.00
2018-12-04T14:52:22.396Z,692.00
2018-12-04T14:53:31.864Z,656.00
2018-12-04T14:54:32.516Z,624.00
2018-12-04T14:55:33.370Z,608.00
2018-12-04T14:56:34.085Z,588.00
2018-12-04T14:57:35.022Z,572.00
2018-12-04T14:58:35.793Z,548.00
2018-12-04T14:59:37.991Z,524.00
2018-12-04T15:00:38.673Z,496.00
2018-12-04T15:01:39.548Z,476.00
2018-12-04T15:02:40.233Z,468.00
2018-12-04T15:03:42.128Z,456.00
2018-12-04T15:04:42.796Z,444.00
2018-12-04T15:06:05.745Z,432.00
2018-12-04T15:07:06.366Z,408.00
2018-12-04T15:08:07.238Z,388.00
2018-12-04T15:09:07.913Z,368.00
2018-12-04T15:10:09.286Z,344.00
2018-12-04T15:11:09.504Z,328.00
2018-12-04T15:12:10.328Z,312.00
2018-12-04T15:13:11.084Z,292.00
2018-12-04T15:14:11.901Z,280.00
2018-12-04T15:15:12.589Z,260.00
2018-12-04T15:16:13.337Z,244.00
2018-12-04T15:17:14.010Z,236.00
2018-12-04T15:18:14.894Z,224.00
2018-12-04T15:19:15.581Z,208.00
2018-12-04T15:20:16.454Z,188.00
2018-12-04T15:21:17.141Z,180.00
2018-12-04T15:22:17.808Z,164.00
2018-12-04T15:23:18.498Z,148.00
2018-12-04T15:24:19.385Z,140.00
2018-12-04T15:25:20.005Z,132.00
2018-12-04T15:26:20.927Z,120.00
2018-12-04T15:27:21.561Z,116.00
2018-12-04T15:28:22.232Z,104.00
2018-12-04T15:29:23.069Z,96.00
2018-12-04T15:30:23.723Z,84.00
2018-12-04T15:31:25.637Z,84.00
2018-12-04T15:32:26.292Z,72.00
2018-12-04T15:33:29.115Z,68.00
2018-12-04T15:34:29.796Z,60.00
2018-12-04T15:35:30.944Z,52.00
2018-12-04T15:36:31.663Z,48.00
2018-12-04T15:37:32.416Z,40.00
2018-12-04T15:38:33.159Z,32.00
2018-12-04T15:39:34.048Z,28.00
2018-12-04T15:40:34.657Z,24.00
2018-12-04T15:41:36.574Z,20.00
2018-12-04T15:42:37.265Z,20.00
2018-12-04T15:43:37.979Z,16.00
2018-12-04T15:44:38.616Z,16.00
2018-12-04T15:45:39.297Z,12.00
2018-12-04T15:46:42.006Z,12.00
2018-12-04T15:47:42.713Z,8.00
2018-12-04T15:48:43.481Z,8.00
2018-12-04T15:49:44.187Z,4.00
2018-12-04T15:50:45.009Z,4.00
2018-12-04T15:51:45.675Z,4.00
2018-12-04T15:52:46.507Z,4.00
2018-12-04T15:53:47.173Z,0.00
2018-12-04T15:54:47.902Z,0.00
2018-12-04T15:55:48.542Z,4.00
2018-12-04T15:56:49.203Z,4.00
2018-12-04T15:57:49.873Z,0.00
2018-12-04T15:58:50.719Z,0.00
2018-12-04T15:59:51.409Z,0.00
2018-12-04T16:00:52.131Z,0.00
2018-12-04T16:01:52.873Z,0.00
2018-12-04T16:02:53.554Z,0.00
2018-12-04T16:03:54.383Z,0.00
2018-12-04T16:04:55.011Z,0.00
2018-12-04T16:06:11.462Z,0.00
2018-12-04T16:07:12.105Z,0.00
2018-12-04T16:08:42.885Z,0.00
2018-12-04T16:09:43.508Z,0.00
2018-12-04T16:10:45.247Z,0.00
2018-12-04T16:11:45.892Z,0.00
2018-12-04T16:12:46.606Z,0.00
2018-12-04T16:13:47.221Z,0.00
2018-12-04T16:25:25.503Z,16.00
2018-12-04T16:26:26.272Z,0.00
2018-12-04T16:29:21.772Z,0.00
2018-12-04T16:30:22.469Z,0.00
2018-12-04T16:31:23.172Z,0.00
2018-12-04T16:32:23.899Z,0.00
2018-12-04T16:33:24.656Z,0.00
2018-12-04T16:34:25.345Z,0.00
2018-12-04T16:35:27.129Z,0.00
2018-12-04T16:36:27.764Z,0.00
2018-12-04T16:37:28.307Z,0.00
2018-12-04T16:38:28.969Z,0.00
2018-12-04T16:39:30.781Z,0.00
2018-12-04T16:40:31.459Z,0.00
2018-12-04T16:41:32.275Z,0.00
2018-12-04T16:42:32.925Z,0.00
2018-12-04T16:43:34.700Z,0.00
2018-12-04T16:44:35.379Z,0.00
2018-12-04T16:45:38.132Z,0.00
2018-12-04T16:46:38.766Z,0.00
2018-12-04T16:47:39.556Z,0.00
2018-12-04T16:48:40.255Z,0.00
2018-12-04T16:49:43.060Z,0.00
2018-12-04T16:50:43.724Z,0.00
2018-12-04T16:51:44.527Z,0.00
2018-12-04T16:52:45.171Z,0.00
2018-12-04T16:53:45.838Z,0.00
2018-12-04T16:54:46.548Z,0.00
2018-12-04T16:55:47.241Z,0.00
2018-12-04T16:56:48.018Z,0.00
2018-12-04T16:57:48.695Z,0.00
2018-12-04T16:58:49.463Z,0.00
2018-12-04T16:59:50.139Z,0.00
2018-12-04T17:00:50.824Z,0.00
2018-12-04T17:01:51.471Z,0.00
2018-12-04T17:02:52.153Z,0.00
2018-12-04T17:03:52.814Z,0.00
2018-12-04T17:04:53.504Z,0.00
2018-12-04T17:05:54.170Z,16.00
2018-12-04T17:06:57.005Z,16.00
2018-12-04T17:07:57.659Z,16.00
2018-12-04T17:08:58.442Z,0.00
2018-12-04T17:09:59.142Z,0.00
2018-12-04T17:10:59.886Z,0.00
2018-12-04T17:12:00.545Z,0.00
2018-12-04T17:13:01.206Z,0.00
2018-12-04T17:14:01.887Z,0.00
2018-12-04T17:15:02.679Z,0.00
2018-12-04T17:16:03.349Z,0.00
2018-12-04T17:17:04.750Z,0.00
2018-12-04T17:18:04.677Z,0.00
2018-12-04T17:19:05.367Z,0.00
2018-12-04T17:20:06.034Z,0.00
2018-12-04T17:21:06.797Z,0.00
2018-12-04T17:22:07.498Z,0.00
2018-12-04T17:23:08.281Z,0.00
2018-12-04T17:24:08.916Z,0.00
2018-12-04T17:25:09.722Z,0.00
2018-12-04T17:26:10.387Z,0.00
2018-12-04T17:27:18.963Z,0.00
2018-12-04T17:28:19.608Z,0.00
2018-12-04T17:29:20.356Z,0.00
2018-12-04T17:30:21.039Z,0.00
2018-12-04T17:31:22.832Z,0.00
2018-12-04T17:32:23.533Z,0.00
2018-12-04T17:33:25.299Z,0.00
2018-12-04T17:34:25.967Z,0.00
2018-12-04T17:35:26.742Z,0.00
2018-12-04T17:36:27.422Z,0.00
2018-12-04T17:37:30.178Z,0.00
2018-12-04T17:38:30.817Z,0.00
2018-12-04T17:39:32.632Z,0.00
2018-12-04T17:40:33.325Z,0.00
2018-12-04T17:41:35.091Z,0.00
2018-12-04T17:42:35.779Z,0.00
2018-12-04T17:43:37.749Z,0.00
2018-12-04T17:44:40.334Z,0.00
